MDST/STI METAR and TAF weather

Enter ICAO airport designator
Station Type Date Time Source
MDST METAR 2021/07/30 23:00 UTC NOAA

MDST 302300Z 11006KT 999 BKN020 28/24 Q1018


Station Type Date Time Source
MDST Decoded METAR 2021/07/30 23:00 UTC NOAA

Santiago, Dominican Republic (MDST) 19-27N 070-42W
Jul 30, 2021 - 07:00 PM EDT / 2021.07.30 2300 UTC
Wind: from the ESE (110 degrees) at 7 MPH (6 KT):0
Sky conditions: mostly cloudy
Temperature: 82 F (28 C)
Dew Point: 75 F (24 C)
Relative Humidity: 78%
Pressure (altimeter): 30.06 in. Hg (1018 hPa)
ob: MDST 302300Z 11006KT 999 BKN020 28/24 Q1018
cycle: 23

Station Type Date Time Source
MDST TAF 2021/07/30 18:56 UTC NOAA

TAF MDST 301600Z 3018/3118 12010KT 9999 SCT020 PROB30 3018/3023 7000-RA SCT016 BKN070

Example: see airport list